Tropical Cyclones
[Index]
Main Index Home Page Stock Weather Photos Extreme Storms Discussion Storm News and Storm Chasing Reports Tropical Cyclones / Hurricanes / Typhoons Weather Data and Links Wild Fires / Bushfires Weather Observation Techniques Weather Picture Catalogue Tornado Pictures and Reports Stock Video Footage and DVDs for sale
Season 2017-2018 Tropical Cyclone NORA Track Map
Season 2017-2018 Summaries (Operational Data): [AU] [SIO] [SPAC] [SH]
<<- Previous TC | 2017-2018 Season | Next TC ->>

click for intensity scale information  Lat/long Grid: Show Hide

 Date Labels: Show Hide

Operational Tropical Cyclone Data : JTWC Advisories

Name: NORA
Number: 1816

19 Mar 2018 00:00 UTC to 28 Mar 2018 06:00 UTC

    date/time    lat    long     hPa   cat  kts
2018-03-19 00   11.4   146.4    1010         15          
2018-03-19 06   11.1   146.1    1007         15          
2018-03-19 12   10.8   145.5    1007         15          
2018-03-19 18    7.6   136.6    1007         15          
2018-03-20 00    7.7   136.9    1002         15          
2018-03-20 06    7.5   136.7    1002         15          
2018-03-20 12    7.8   136.1    1002         15          
2018-03-20 18    8.2   135.6    1000         15          
2018-03-21 00    8.6   135.2    1010         15          
2018-03-21 06    9.2   135.0    1010         15          
2018-03-21 12    9.8   135.3    1000         15          
2018-03-21 18   10.0   135.4    1004         25          
2018-03-22 00   10.1   135.5    1000         30          
2018-03-22 06   10.1   135.9     993    1    35          
2018-03-22 12   10.0   136.3     996    1    35          
2018-03-22 18    9.9   136.5     992    1    45          
2018-03-23 00    9.9   137.0     986    2    55          
2018-03-23 06   10.6   138.0     980    3    65          
2018-03-23 12   11.4   138.8     961    4    95          
2018-03-23 18   11.9   139.4     960    4    95          
2018-03-24 00   12.6   140.1     965    4    90          
2018-03-24 06   13.3   140.8     965    4    90          
2018-03-24 12   14.2   141.5     969    3    85          
2018-03-24 18   15.5   141.8     974    3    65          
2018-03-25 00   16.4   142.2     994    2    50          
2018-03-25 06   16.9   142.5     996         30          
2018-03-25 12   17.2   142.3    1000         25          
2018-03-25 18   17.2   142.0    1004         25          
2018-03-26 00   17.1   141.7    1004         25          
2018-03-26 06   16.8   141.8    1004         25          
2018-03-26 12   16.6   142.7    1001         25          
2018-03-26 18   16.8   143.3    1001         20          
2018-03-27 00   16.3   143.4    1002         20          
2018-03-27 06   16.2   142.5    1001         15          
2018-03-27 12   16.2   141.6    1003         15          
2018-03-27 18   16.7   140.9    1010         15          
2018-03-28 00   16.8   140.0    1004         15          
2018-03-28 06   16.9   138.9    1010         15          
Winds are 10-min average.

Tropical cyclone tracks developed by Michael Bath using operational warnings and advisories and Google Maps.


[Australian Severe Weather index] [Copyright Notice] [Email Contacts] [Search This Site] [Privacy Policy]
Document: tropical_cyclone_nora.htm Updated: 11 March 2020